sensor_id;sensor_type;location;lat;lon;timestamp;temperature;humidity
18229;DHT22;9239;50.932;3.142;2022-10-16T00:00:36;13.80;99.90
18229;DHT22;9239;50.932;3.142;2022-10-16T00:03:04;13.70;99.90
18229;DHT22;9239;50.932;3.142;2022-10-16T00:05:31;13.70;99.90
18229;DHT22;9239;50.932;3.142;2022-10-16T00:07:58;13.70;99.90
18229;DHT22;9239;50.932;3.142;2022-10-16T00:10:25;13.70;99.90
18229;DHT22;9239;50.932;3.142;2022-10-16T00:12:53;13.70;99.90
18229;DHT22;9239;50.932;3.142;2022-10-16T00:15:20;13.60;99.90
18229;DHT22;9239;50.932;3.142;2022-10-16T00:17:47;13.60;99.90
18229;DHT22;9239;50.932;3.142;2022-10-16T00:20:14;13.60;99.90
18229;DHT22;9239;50.932;3.142;2022-10-16T00:22:41;13.60;99.90
18229;DHT22;9239;50.932;3.142;2022-10-16T00:25:08;13.60;99.90
18229;DHT22;9239;50.932;3.142;2022-10-16T00:27:35;13.60;99.90
18229;DHT22;9239;50.932;3.142;2022-10-16T00:30:04;13.60;99.90
18229;DHT22;9239;50.932;3.142;2022-10-16T00:32:33;13.60;99.90
18229;DHT22;9239;50.932;3.142;2022-10-16T00:35:00;13.60;99.90
18229;DHT22;9239;50.932;3.142;2022-10-16T00:37:29;13.60;99.90
18229;DHT22;9239;50.932;3.142;2022-10-16T00:39:56;13.60;99.90
18229;DHT22;9239;50.932;3.142;2022-10-16T00:42:23;13.60;99.90
18229;DHT22;9239;50.932;3.142;2022-10-16T00:44:52;13.50;99.90
18229;DHT22;9239;50.932;3.142;2022-10-16T00:47:25;13.50;99.90
18229;DHT22;9239;50.932;3.142;2022-10-16T00:49:56;13.50;99.90
18229;DHT22;9239;50.932;3.142;2022-10-16T00:52:24;13.50;99.90
18229;DHT22;9239;50.932;3.142;2022-10-16T00:54:52;13.50;99.90
18229;DHT22;9239;50.932;3.142;2022-10-16T00:57:20;13.40;99.90
18229;DHT22;9239;50.932;3.142;2022-10-16T00:59:47;13.40;99.90
18229;DHT22;9239;50.932;3.142;2022-10-16T01:02:15;13.40;99.90
18229;DHT22;9239;50.932;3.142;2022-10-16T01:04:45;13.40;99.90
18229;DHT22;9239;50.932;3.142;2022-10-16T01:07:18;13.40;99.90
18229;DHT22;9239;50.932;3.142;2022-10-16T01:09:57;13.40;99.90
18229;DHT22;9239;50.932;3.142;2022-10-16T01:12:36;13.30;99.90
18229;DHT22;9239;50.932;3.142;2022-10-16T01:15:10;13.30;99.90
18229;DHT22;9239;50.932;3.142;2022-10-16T01:17:43;13.30;99.90
18229;DHT22;9239;50.932;3.142;2022-10-16T01:20:20;13.30;99.90
18229;DHT22;9239;50.932;3.142;2022-10-16T01:23:01;13.30;99.90
18229;DHT22;9239;50.932;3.142;2022-10-16T01:25:39;13.30;99.90
18229;DHT22;9239;50.932;3.142;2022-10-16T01:28:15;13.20;99.90
18229;DHT22;9239;50.932;3.142;2022-10-16T01:30:43;13.30;99.90
18229;DHT22;9239;50.932;3.142;2022-10-16T01:33:16;13.20;99.90
18229;DHT22;9239;50.932;3.142;2022-10-16T01:35:47;13.20;99.90
18229;DHT22;9239;50.932;3.142;2022-10-16T01:38:17;13.20;99.90
18229;DHT22;9239;50.932;3.142;2022-10-16T01:40:47;13.20;99.90
18229;DHT22;9239;50.932;3.142;2022-10-16T01:43:19;13.20;99.90
18229;DHT22;9239;50.932;3.142;2022-10-16T01:45:47;13.20;99.90
18229;DHT22;9239;50.932;3.142;2022-10-16T01:48:17;13.20;99.90
18229;DHT22;9239;50.932;3.142;2022-10-16T01:50:50;13.20;99.90
18229;DHT22;9239;50.932;3.142;2022-10-16T01:53:19;13.20;99.90
18229;DHT22;9239;50.932;3.142;2022-10-16T01:55:48;13.20;99.90
18229;DHT22;9239;50.932;3.142;2022-10-16T01:58:17;13.20;99.90
18229;DHT22;9239;50.932;3.142;2022-10-16T02:00:45;13.20;99.90
18229;DHT22;9239;50.932;3.142;2022-10-16T02:03:16;13.20;99.90
18229;DHT22;9239;50.932;3.142;2022-10-16T02:05:46;13.20;99.90
18229;DHT22;9239;50.932;3.142;2022-10-16T02:08:13;13.20;99.90
18229;DHT22;9239;50.932;3.142;2022-10-16T02:10:41;13.20;99.90
18229;DHT22;9239;50.932;3.142;2022-10-16T02:13:10;13.20;99.90
18229;DHT22;9239;50.932;3.142;2022-10-16T02:15:40;13.20;99.90
18229;DHT22;9239;50.932;3.142;2022-10-16T02:18:07;13.10;99.90
18229;DHT22;9239;50.932;3.142;2022-10-16T02:20:42;13.10;99.90
18229;DHT22;9239;50.932;3.142;2022-10-16T02:23:12;13.20;99.90
18229;DHT22;9239;50.932;3.142;2022-10-16T02:25:45;13.20;99.90
18229;DHT22;9239;50.932;3.142;2022-10-16T02:28:16;13.20;99.90
18229;DHT22;9239;50.932;3.142;2022-10-16T02:30:47;13.20;99.90
18229;DHT22;9239;50.932;3.142;2022-10-16T02:33:16;13.10;99.90
18229;DHT22;9239;50.932;3.142;2022-10-16T02:35:46;13.10;99.90
18229;DHT22;9239;50.932;3.142;2022-10-16T02:38:14;13.20;99.90
18229;DHT22;9239;50.932;3.142;2022-10-16T02:40:42;13.20;99.90
18229;DHT22;9239;50.932;3.142;2022-10-16T02:43:09;13.10;99.90
18229;DHT22;9239;50.932;3.142;2022-10-16T02:45:37;13.20;99.90
18229;DHT22;9239;50.932;3.142;2022-10-16T02:48:06;13.20;99.90
18229;DHT22;9239;50.932;3.142;2022-10-16T02:50:33;13.10;99.90
18229;DHT22;9239;50.932;3.142;2022-10-16T02:53:00;13.10;99.90
18229;DHT22;9239;50.932;3.142;2022-10-16T02:55:27;13.10;99.90
18229;DHT22;9239;50.932;3.142;2022-10-16T02:57:54;13.00;99.90
18229;DHT22;9239;50.932;3.142;2022-10-16T03:00:21;13.10;99.90
18229;DHT22;9239;50.932;3.142;2022-10-16T03:02:48;13.10;99.90
18229;DHT22;9239;50.932;3.142;2022-10-16T03:05:17;13.10;99.90
18229;DHT22;9239;50.932;3.142;2022-10-16T03:07:44;13.10;99.90
18229;DHT22;9239;50.932;3.142;2022-10-16T03:10:11;13.10;99.90
18229;DHT22;9239;50.932;3.142;2022-10-16T03:12:37;13.20;99.90
18229;DHT22;9239;50.932;3.142;2022-10-16T03:15:05;13.10;99.90
18229;DHT22;9239;50.932;3.142;2022-10-16T03:17:33;13.10;99.90
18229;DHT22;9239;50.932;3.142;2022-10-16T03:20:00;13.10;99.90
18229;DHT22;9239;50.932;3.142;2022-10-16T03:22:28;13.10;99.90
18229;DHT22;9239;50.932;3.142;2022-10-16T03:24:55;13.10;99.90
18229;DHT22;9239;50.932;3.142;2022-10-16T03:27:22;13.10;99.90
18229;DHT22;9239;50.932;3.142;2022-10-16T03:29:49;13.10;99.90
18229;DHT22;9239;50.932;3.142;2022-10-16T03:32:16;13.10;99.90
18229;DHT22;9239;50.932;3.142;2022-10-16T03:34:44;13.00;99.90
18229;DHT22;9239;50.932;3.142;2022-10-16T03:37:11;13.00;99.90
18229;DHT22;9239;50.932;3.142;2022-10-16T03:39:39;13.00;99.90
18229;DHT22;9239;50.932;3.142;2022-10-16T03:42:06;13.00;99.90
18229;DHT22;9239;50.932;3.142;2022-10-16T03:44:33;13.00;99.90
18229;DHT22;9239;50.932;3.142;2022-10-16T03:47:00;13.00;99.90
18229;DHT22;9239;50.932;3.142;2022-10-16T03:49:27;13.00;99.90
18229;DHT22;9239;50.932;3.142;2022-10-16T03:51:53;13.00;99.90
18229;DHT22;9239;50.932;3.142;2022-10-16T03:54:20;12.90;99.90
18229;DHT22;9239;50.932;3.142;2022-10-16T03:56:49;12.90;99.90
18229;DHT22;9239;50.932;3.142;2022-10-16T03:59:16;12.90;99.90
18229;DHT22;9239;50.932;3.142;2022-10-16T04:01:43;12.90;99.90
18229;DHT22;9239;50.932;3.142;2022-10-16T04:04:10;12.90;99.90
18229;DHT22;9239;50.932;3.142;2022-10-16T04:06:36;12.80;99.90
18229;DHT22;9239;50.932;3.142;2022-10-16T04:09:03;12.80;99.90
18229;DHT22;9239;50.932;3.142;2022-10-16T04:11:30;12.80;99.90
18229;DHT22;9239;50.932;3.142;2022-10-16T04:13:59;12.70;99.90
18229;DHT22;9239;50.932;3.142;2022-10-16T04:16:26;12.70;99.90
18229;DHT22;9239;50.932;3.142;2022-10-16T04:18:52;12.80;99.90
18229;DHT22;9239;50.932;3.142;2022-10-16T04:21:19;12.80;99.90
18229;DHT22;9239;50.932;3.142;2022-10-16T04:23:46;12.80;99.90
18229;DHT22;9239;50.932;3.142;2022-10-16T04:26:13;12.80;99.90
18229;DHT22;9239;50.932;3.142;2022-10-16T04:28:40;12.80;99.90
18229;DHT22;9239;50.932;3.142;2022-10-16T04:31:09;12.70;99.90
18229;DHT22;9239;50.932;3.142;2022-10-16T04:33:35;12.80;99.90
18229;DHT22;9239;50.932;3.142;2022-10-16T04:36:03;12.70;99.90
18229;DHT22;9239;50.932;3.142;2022-10-16T04:38:30;12.80;99.90
18229;DHT22;9239;50.932;3.142;2022-10-16T04:40:57;12.80;99.90
18229;DHT22;9239;50.932;3.142;2022-10-16T04:43:25;12.80;99.90
18229;DHT22;9239;50.932;3.142;2022-10-16T04:45:52;12.80;99.90
18229;DHT22;9239;50.932;3.142;2022-10-16T04:48:21;12.80;99.90
18229;DHT22;9239;50.932;3.142;2022-10-16T04:50:49;12.90;99.90
18229;DHT22;9239;50.932;3.142;2022-10-16T04:53:16;12.90;99.90
18229;DHT22;9239;50.932;3.142;2022-10-16T04:55:44;12.90;99.90
18229;DHT22;9239;50.932;3.142;2022-10-16T04:58:11;13.00;99.90
18229;DHT22;9239;50.932;3.142;2022-10-16T05:00:38;13.00;99.90
18229;DHT22;9239;50.932;3.142;2022-10-16T05:03:05;13.00;99.90
18229;DHT22;9239;50.932;3.142;2022-10-16T05:05:36;13.10;99.90
18229;DHT22;9239;50.932;3.142;2022-10-16T05:08:03;13.10;99.90
18229;DHT22;9239;50.932;3.142;2022-10-16T05:10:30;13.10;99.90
18229;DHT22;9239;50.932;3.142;2022-10-16T05:12:57;13.10;99.90
18229;DHT22;9239;50.932;3.142;2022-10-16T05:15:24;13.10;99.90
18229;DHT22;9239;50.932;3.142;2022-10-16T05:17:53;13.00;99.90
18229;DHT22;9239;50.932;3.142;2022-10-16T05:20:20;13.00;99.90
18229;DHT22;9239;50.932;3.142;2022-10-16T05:22:48;13.00;99.90
18229;DHT22;9239;50.932;3.142;2022-10-16T05:25:15;13.00;99.90
18229;DHT22;9239;50.932;3.142;2022-10-16T05:27:42;13.00;99.90
18229;DHT22;9239;50.932;3.142;2022-10-16T05:30:10;12.90;99.90
18229;DHT22;9239;50.932;3.142;2022-10-16T05:32:36;12.90;99.90
18229;DHT22;9239;50.932;3.142;2022-10-16T05:35:04;12.90;99.90
18229;DHT22;9239;50.932;3.142;2022-10-16T05:37:31;12.90;99.90
18229;DHT22;9239;50.932;3.142;2022-10-16T05:39:59;12.80;99.90
18229;DHT22;9239;50.932;3.142;2022-10-16T05:42:26;12.90;99.90
18229;DHT22;9239;50.932;3.142;2022-10-16T05:44:53;12.90;99.90
18229;DHT22;9239;50.932;3.142;2022-10-16T05:47:20;12.90;99.90
18229;DHT22;9239;50.932;3.142;2022-10-16T05:49:47;12.90;99.90
18229;DHT22;9239;50.932;3.142;2022-10-16T05:52:14;12.80;99.90
18229;DHT22;9239;50.932;3.142;2022-10-16T05:54:41;12.80;99.90
18229;DHT22;9239;50.932;3.142;2022-10-16T05:57:09;12.70;99.90
18229;DHT22;9239;50.932;3.142;2022-10-16T05:59:36;12.70;99.90
18229;DHT22;9239;50.932;3.142;2022-10-16T06:02:03;12.70;99.90
18229;DHT22;9239;50.932;3.142;2022-10-16T06:04:30;12.70;99.90
18229;DHT22;9239;50.932;3.142;2022-10-16T06:06:58;12.70;99.90
18229;DHT22;9239;50.932;3.142;2022-10-16T06:09:26;12.70;99.90
18229;DHT22;9239;50.932;3.142;2022-10-16T06:11:53;12.70;99.90
18229;DHT22;9239;50.932;3.142;2022-10-16T06:14:22;12.60;99.90
18229;DHT22;9239;50.932;3.142;2022-10-16T06:16:49;12.60;99.90
18229;DHT22;9239;50.932;3.142;2022-10-16T06:19:16;12.60;99.90
18229;DHT22;9239;50.932;3.142;2022-10-16T06:21:43;12.50;99.90
18229;DHT22;9239;50.932;3.142;2022-10-16T06:24:10;12.50;99.90
18229;DHT22;9239;50.932;3.142;2022-10-16T06:26:37;12.60;99.90
18229;DHT22;9239;50.932;3.142;2022-10-16T06:29:04;12.60;99.90
18229;DHT22;9239;50.932;3.142;2022-10-16T06:31:33;12.60;99.90
18229;DHT22;9239;50.932;3.142;2022-10-16T06:34:00;12.60;99.90
18229;DHT22;9239;50.932;3.142;2022-10-16T06:36:27;12.60;99.90
18229;DHT22;9239;50.932;3.142;2022-10-16T06:38:54;12.60;99.90
18229;DHT22;9239;50.932;3.142;2022-10-16T06:41:22;12.60;99.90
18229;DHT22;9239;50.932;3.142;2022-10-16T06:43:49;12.60;99.90
18229;DHT22;9239;50.932;3.142;2022-10-16T06:46:17;12.60;99.90
18229;DHT22;9239;50.932;3.142;2022-10-16T06:48:46;12.60;99.90
18229;DHT22;9239;50.932;3.142;2022-10-16T06:51:14;12.70;99.90
18229;DHT22;9239;50.932;3.142;2022-10-16T06:53:43;12.80;99.90
18229;DHT22;9239;50.932;3.142;2022-10-16T06:56:12;12.80;99.90
18229;DHT22;9239;50.932;3.142;2022-10-16T06:58:39;12.80;99.90
18229;DHT22;9239;50.932;3.142;2022-10-16T07:01:07;12.80;99.90
18229;DHT22;9239;50.932;3.142;2022-10-16T07:03:36;12.80;99.90
18229;DHT22;9239;50.932;3.142;2022-10-16T07:06:06;12.90;99.90
18229;DHT22;9239;50.932;3.142;2022-10-16T07:08:34;12.90;99.90
18229;DHT22;9239;50.932;3.142;2022-10-16T07:11:02;12.90;99.90
18229;DHT22;9239;50.932;3.142;2022-10-16T07:13:29;12.90;99.90
18229;DHT22;9239;50.932;3.142;2022-10-16T07:15:56;13.00;99.90
18229;DHT22;9239;50.932;3.142;2022-10-16T07:18:22;13.00;99.90
18229;DHT22;9239;50.932;3.142;2022-10-16T07:20:52;13.10;99.90
18229;DHT22;9239;50.932;3.142;2022-10-16T07:23:20;13.20;99.90
18229;DHT22;9239;50.932;3.142;2022-10-16T07:25:53;13.30;99.90
18229;DHT22;9239;50.932;3.142;2022-10-16T07:28:21;13.30;99.90
18229;DHT22;9239;50.932;3.142;2022-10-16T07:30:48;13.30;99.90
18229;DHT22;9239;50.932;3.142;2022-10-16T07:33:15;13.40;99.90
18229;DHT22;9239;50.932;3.142;2022-10-16T07:35:48;13.40;99.90
18229;DHT22;9239;50.932;3.142;2022-10-16T07:38:15;13.50;99.90
18229;DHT22;9239;50.932;3.142;2022-10-16T07:40:43;13.50;99.90
18229;DHT22;9239;50.932;3.142;2022-10-16T07:43:11;13.50;99.90
18229;DHT22;9239;50.932;3.142;2022-10-16T07:45:45;13.60;99.90
18229;DHT22;9239;50.932;3.142;2022-10-16T07:48:12;13.60;99.90
18229;DHT22;9239;50.932;3.142;2022-10-16T07:50:39;13.70;99.90
18229;DHT22;9239;50.932;3.142;2022-10-16T07:53:06;13.70;99.90
18229;DHT22;9239;50.932;3.142;2022-10-16T07:55:33;13.80;99.90
18229;DHT22;9239;50.932;3.142;2022-10-16T07:58:02;13.90;99.90
18229;DHT22;9239;50.932;3.142;2022-10-16T08:00:29;13.90;99.90
18229;DHT22;9239;50.932;3.142;2022-10-16T08:02:56;14.00;99.90
18229;DHT22;9239;50.932;3.142;2022-10-16T08:05:25;14.00;99.90
18229;DHT22;9239;50.932;3.142;2022-10-16T08:07:53;14.00;99.90
18229;DHT22;9239;50.932;3.142;2022-10-16T08:10:21;14.00;99.90
18229;DHT22;9239;50.932;3.142;2022-10-16T08:12:48;14.10;99.90
18229;DHT22;9239;50.932;3.142;2022-10-16T08:15:17;14.10;99.90
18229;DHT22;9239;50.932;3.142;2022-10-16T08:17:44;14.10;99.90
18229;DHT22;9239;50.932;3.142;2022-10-16T08:20:11;14.20;99.90
18229;DHT22;9239;50.932;3.142;2022-10-16T08:22:38;14.30;99.90
18229;DHT22;9239;50.932;3.142;2022-10-16T08:25:05;14.40;99.90
18229;DHT22;9239;50.932;3.142;2022-10-16T08:27:32;14.40;99.90
18229;DHT22;9239;50.932;3.142;2022-10-16T08:29:59;14.50;99.90
18229;DHT22;9239;50.932;3.142;2022-10-16T08:32:27;14.60;99.90
18229;DHT22;9239;50.932;3.142;2022-10-16T08:34:54;14.60;99.90
18229;DHT22;9239;50.932;3.142;2022-10-16T08:37:21;14.70;99.90
18229;DHT22;9239;50.932;3.142;2022-10-16T08:39:48;14.70;99.90
18229;DHT22;9239;50.932;3.142;2022-10-16T08:42:29;14.80;99.90
18229;DHT22;9239;50.932;3.142;2022-10-16T08:45:15;14.90;99.90
18229;DHT22;9239;50.932;3.142;2022-10-16T08:47:56;15.00;99.90
18229;DHT22;9239;50.932;3.142;2022-10-16T08:50:29;15.00;99.90
18229;DHT22;9239;50.932;3.142;2022-10-16T08:52:57;15.10;99.90
18229;DHT22;9239;50.932;3.142;2022-10-16T08:55:31;15.20;99.90
18229;DHT22;9239;50.932;3.142;2022-10-16T08:58:00;15.30;99.90
18229;DHT22;9239;50.932;3.142;2022-10-16T09:00:27;15.30;99.90
18229;DHT22;9239;50.932;3.142;2022-10-16T09:03:03;15.40;99.90
18229;DHT22;9239;50.932;3.142;2022-10-16T09:05:49;15.40;99.90
18229;DHT22;9239;50.932;3.142;2022-10-16T09:08:24;15.50;99.90
18229;DHT22;9239;50.932;3.142;2022-10-16T09:10:57;15.60;99.90
18229;DHT22;9239;50.932;3.142;2022-10-16T09:13:28;15.70;99.90
18229;DHT22;9239;50.932;3.142;2022-10-16T09:16:01;15.70;99.90
18229;DHT22;9239;50.932;3.142;2022-10-16T09:18:36;15.80;99.90
18229;DHT22;9239;50.932;3.142;2022-10-16T09:21:09;15.80;99.90
18229;DHT22;9239;50.932;3.142;2022-10-16T09:23:37;15.90;99.90
18229;DHT22;9239;50.932;3.142;2022-10-16T09:26:05;16.00;99.90
18229;DHT22;9239;50.932;3.142;2022-10-16T09:28:36;16.10;99.90
18229;DHT22;9239;50.932;3.142;2022-10-16T09:31:03;16.10;99.90
18229;DHT22;9239;50.932;3.142;2022-10-16T09:33:35;16.20;99.90
18229;DHT22;9239;50.932;3.142;2022-10-16T09:36:05;16.30;99.90
18229;DHT22;9239;50.932;3.142;2022-10-16T09:38:34;16.30;99.90
18229;DHT22;9239;50.932;3.142;2022-10-16T09:41:03;16.30;99.90
18229;DHT22;9239;50.932;3.142;2022-10-16T09:43:38;16.40;99.90
18229;DHT22;9239;50.932;3.142;2022-10-16T09:46:08;16.50;99.90
18229;DHT22;9239;50.932;3.142;2022-10-16T09:48:39;16.50;99.90
18229;DHT22;9239;50.932;3.142;2022-10-16T09:51:18;16.40;99.90
18229;DHT22;9239;50.932;3.142;2022-10-16T09:53:46;16.50;99.90
18229;DHT22;9239;50.932;3.142;2022-10-16T09:56:22;16.50;99.90
18229;DHT22;9239;50.932;3.142;2022-10-16T09:58:50;16.60;99.90
18229;DHT22;9239;50.932;3.142;2022-10-16T10:01:19;16.70;99.90
18229;DHT22;9239;50.932;3.142;2022-10-16T10:03:48;16.70;99.90
18229;DHT22;9239;50.932;3.142;2022-10-16T10:06:22;16.80;99.90
18229;DHT22;9239;50.932;3.142;2022-10-16T10:08:58;16.90;99.90
18229;DHT22;9239;50.932;3.142;2022-10-16T10:11:43;16.80;99.90
18229;DHT22;9239;50.932;3.142;2022-10-16T10:14:23;16.90;99.90
18229;DHT22;9239;50.932;3.142;2022-10-16T10:16:52;17.00;99.90
18229;DHT22;9239;50.932;3.142;2022-10-16T10:19:22;17.10;99.90
18229;DHT22;9239;50.932;3.142;2022-10-16T10:21:50;17.10;99.90
18229;DHT22;9239;50.932;3.142;2022-10-16T10:24:19;17.20;99.90
18229;DHT22;9239;50.932;3.142;2022-10-16T10:27:00;17.30;99.90
18229;DHT22;9239;50.932;3.142;2022-10-16T10:29:40;17.30;99.90
18229;DHT22;9239;50.932;3.142;2022-10-16T10:32:19;17.30;99.90
18229;DHT22;9239;50.932;3.142;2022-10-16T10:35:07;17.40;99.90
18229;DHT22;9239;50.932;3.142;2022-10-16T10:37:49;17.50;99.90
18229;DHT22;9239;50.932;3.142;2022-10-16T10:40:28;17.50;99.90
18229;DHT22;9239;50.932;3.142;2022-10-16T10:43:00;17.60;99.90
18229;DHT22;9239;50.932;3.142;2022-10-16T10:45:39;17.70;99.90
18229;DHT22;9239;50.932;3.142;2022-10-16T10:48:19;17.80;99.90
18229;DHT22;9239;50.932;3.142;2022-10-16T10:50:52;17.90;99.90
18229;DHT22;9239;50.932;3.142;2022-10-16T10:53:31;18.10;99.90
18229;DHT22;9239;50.932;3.142;2022-10-16T10:56:11;18.20;99.90
18229;DHT22;9239;50.932;3.142;2022-10-16T10:59:08;18.20;99.90
18229;DHT22;9239;50.932;3.142;2022-10-16T11:01:47;18.30;99.90
18229;DHT22;9239;50.932;3.142;2022-10-16T11:04:27;18.20;99.90
18229;DHT22;9239;50.932;3.142;2022-10-16T11:06:59;18.00;99.90
18229;DHT22;9239;50.932;3.142;2022-10-16T11:09:32;18.00;99.90
18229;DHT22;9239;50.932;3.142;2022-10-16T11:12:06;18.20;99.90
18229;DHT22;9239;50.932;3.142;2022-10-16T11:14:38;18.30;99.90
18229;DHT22;9239;50.932;3.142;2022-10-16T11:17:11;18.20;99.90
18229;DHT22;9239;50.932;3.142;2022-10-16T11:19:44;18.20;99.90
18229;DHT22;9239;50.932;3.142;2022-10-16T11:22:19;18.30;99.90
18229;DHT22;9239;50.932;3.142;2022-10-16T11:24:53;18.50;99.90
18229;DHT22;9239;50.932;3.142;2022-10-16T11:27:33;18.60;99.90
18229;DHT22;9239;50.932;3.142;2022-10-16T11:30:05;18.70;99.90
18229;DHT22;9239;50.932;3.142;2022-10-16T11:32:47;18.80;99.90
18229;DHT22;9239;50.932;3.142;2022-10-16T11:35:19;18.80;99.90
18229;DHT22;9239;50.932;3.142;2022-10-16T11:37:50;18.90;99.90
18229;DHT22;9239;50.932;3.142;2022-10-16T11:40:25;18.80;99.90
18229;DHT22;9239;50.932;3.142;2022-10-16T11:43:01;18.80;99.90
18229;DHT22;9239;50.932;3.142;2022-10-16T11:45:34;18.80;99.90
18229;DHT22;9239;50.932;3.142;2022-10-16T11:48:08;18.70;99.90
18229;DHT22;9239;50.932;3.142;2022-10-16T11:50:43;18.70;99.90
18229;DHT22;9239;50.932;3.142;2022-10-16T11:53:16;18.70;99.90
18229;DHT22;9239;50.932;3.142;2022-10-16T11:55:48;18.60;99.90
18229;DHT22;9239;50.932;3.142;2022-10-16T11:58:22;18.70;99.90
18229;DHT22;9239;50.932;3.142;2022-10-16T12:00:58;18.60;99.90
18229;DHT22;9239;50.932;3.142;2022-10-16T12:03:29;18.60;99.90
18229;DHT22;9239;50.932;3.142;2022-10-16T12:06:12;18.70;99.90
18229;DHT22;9239;50.932;3.142;2022-10-16T12:08:43;18.80;99.90
18229;DHT22;9239;50.932;3.142;2022-10-16T12:11:23;18.80;99.90
18229;DHT22;9239;50.932;3.142;2022-10-16T12:13:50;18.90;99.90
18229;DHT22;9239;50.932;3.142;2022-10-16T12:16:22;19.00;99.90
18229;DHT22;9239;50.932;3.142;2022-10-16T12:19:07;19.10;99.90
18229;DHT22;9239;50.932;3.142;2022-10-16T12:21:36;19.10;99.90
18229;DHT22;9239;50.932;3.142;2022-10-16T12:24:05;19.20;99.90
18229;DHT22;9239;50.932;3.142;2022-10-16T12:26:34;19.10;99.90
18229;DHT22;9239;50.932;3.142;2022-10-16T12:29:22;19.10;99.90
18229;DHT22;9239;50.932;3.142;2022-10-16T12:31:50;18.90;99.90
18229;DHT22;9239;50.932;3.142;2022-10-16T12:34:22;18.90;99.90
18229;DHT22;9239;50.932;3.142;2022-10-16T12:36:50;18.90;99.90
18229;DHT22;9239;50.932;3.142;2022-10-16T12:39:23;19.00;99.90
18229;DHT22;9239;50.932;3.142;2022-10-16T12:42:01;19.00;99.90
18229;DHT22;9239;50.932;3.142;2022-10-16T12:44:32;19.10;99.90
18229;DHT22;9239;50.932;3.142;2022-10-16T12:46:59;19.00;99.90
18229;DHT22;9239;50.932;3.142;2022-10-16T12:49:32;18.80;99.90
18229;DHT22;9239;50.932;3.142;2022-10-16T12:52:02;18.80;99.90
18229;DHT22;9239;50.932;3.142;2022-10-16T12:54:35;18.80;99.90
18229;DHT22;9239;50.932;3.142;2022-10-16T12:57:22;18.70;99.90
18229;DHT22;9239;50.932;3.142;2022-10-16T12:59:57;18.70;99.90
18229;DHT22;9239;50.932;3.142;2022-10-16T13:02:44;18.80;99.90
18229;DHT22;9239;50.932;3.142;2022-10-16T13:05:25;18.90;99.90
18229;DHT22;9239;50.932;3.142;2022-10-16T13:08:02;18.90;99.90
18229;DHT22;9239;50.932;3.142;2022-10-16T13:10:40;18.80;99.90
18229;DHT22;9239;50.932;3.142;2022-10-16T13:13:29;18.80;99.90
18229;DHT22;9239;50.932;3.142;2022-10-16T13:16:08;18.70;99.90
18229;DHT22;9239;50.932;3.142;2022-10-16T13:18:44;18.80;99.90
18229;DHT22;9239;50.932;3.142;2022-10-16T13:21:24;18.80;99.90
18229;DHT22;9239;50.932;3.142;2022-10-16T13:24:02;18.90;99.90
18229;DHT22;9239;50.932;3.142;2022-10-16T13:26:37;19.00;99.90
18229;DHT22;9239;50.932;3.142;2022-10-16T13:29:07;19.00;99.90
18229;DHT22;9239;50.932;3.142;2022-10-16T13:31:38;19.00;99.90
18229;DHT22;9239;50.932;3.142;2022-10-16T13:34:06;19.00;99.90
18229;DHT22;9239;50.932;3.142;2022-10-16T13:36:44;19.00;99.90
18229;DHT22;9239;50.932;3.142;2022-10-16T13:39:13;18.90;99.90
18229;DHT22;9239;50.932;3.142;2022-10-16T13:41:41;18.80;99.90
18229;DHT22;9239;50.932;3.142;2022-10-16T13:44:14;18.80;99.90
18229;DHT22;9239;50.932;3.142;2022-10-16T13:46:41;18.80;99.90
18229;DHT22;9239;50.932;3.142;2022-10-16T13:49:13;18.80;99.90
18229;DHT22;9239;50.932;3.142;2022-10-16T13:51:40;18.70;99.90
18229;DHT22;9239;50.932;3.142;2022-10-16T13:54:09;18.70;99.90
18229;DHT22;9239;50.932;3.142;2022-10-16T13:56:39;18.70;99.90
18229;DHT22;9239;50.932;3.142;2022-10-16T13:59:23;18.70;99.90
18229;DHT22;9239;50.932;3.142;2022-10-16T14:01:52;18.70;99.90
18229;DHT22;9239;50.932;3.142;2022-10-16T14:04:21;18.70;99.90
18229;DHT22;9239;50.932;3.142;2022-10-16T14:06:50;18.70;99.90
18229;DHT22;9239;50.932;3.142;2022-10-16T14:09:22;18.80;99.90
18229;DHT22;9239;50.932;3.142;2022-10-16T14:11:50;18.70;99.90
18229;DHT22;9239;50.932;3.142;2022-10-16T14:14:19;18.70;99.90
18229;DHT22;9239;50.932;3.142;2022-10-16T14:16:47;18.60;99.90
18229;DHT22;9239;50.932;3.142;2022-10-16T14:19:19;18.60;99.90
18229;DHT22;9239;50.932;3.142;2022-10-16T14:21:47;18.60;99.90
18229;DHT22;9239;50.932;3.142;2022-10-16T14:24:26;18.50;99.90
18229;DHT22;9239;50.932;3.142;2022-10-16T14:26:53;18.40;99.90
18229;DHT22;9239;50.932;3.142;2022-10-16T14:29:24;18.40;99.90
18229;DHT22;9239;50.932;3.142;2022-10-16T14:31:55;18.30;99.90
18229;DHT22;9239;50.932;3.142;2022-10-16T14:34:25;18.30;99.90
18229;DHT22;9239;50.932;3.142;2022-10-16T14:36:53;18.20;99.90
18229;DHT22;9239;50.932;3.142;2022-10-16T14:39:21;18.20;99.90
18229;DHT22;9239;50.932;3.142;2022-10-16T14:41:50;18.20;99.90
18229;DHT22;9239;50.932;3.142;2022-10-16T14:44:18;18.20;99.90
18229;DHT22;9239;50.932;3.142;2022-10-16T14:46:47;18.10;99.90
18229;DHT22;9239;50.932;3.142;2022-10-16T14:49:17;18.10;99.90
18229;DHT22;9239;50.932;3.142;2022-10-16T14:51:45;18.10;99.90
18229;DHT22;9239;50.932;3.142;2022-10-16T14:54:13;18.10;99.90
18229;DHT22;9239;50.932;3.142;2022-10-16T14:56:47;18.10;99.90
18229;DHT22;9239;50.932;3.142;2022-10-16T14:59:17;18.10;99.90
18229;DHT22;9239;50.932;3.142;2022-10-16T15:01:44;18.00;99.90
18229;DHT22;9239;50.932;3.142;2022-10-16T15:04:13;18.10;99.90
18229;DHT22;9239;50.932;3.142;2022-10-16T15:06:41;18.00;99.90
18229;DHT22;9239;50.932;3.142;2022-10-16T15:09:08;17.90;99.90
18229;DHT22;9239;50.932;3.142;2022-10-16T15:11:35;17.80;99.90
18229;DHT22;9239;50.932;3.142;2022-10-16T15:14:02;17.80;99.90
18229;DHT22;9239;50.932;3.142;2022-10-16T15:16:30;17.80;99.90
18229;DHT22;9239;50.932;3.142;2022-10-16T15:18:57;17.80;99.90
18229;DHT22;9239;50.932;3.142;2022-10-16T15:21:28;17.80;99.90
18229;DHT22;9239;50.932;3.142;2022-10-16T15:23:55;17.80;99.90
18229;DHT22;9239;50.932;3.142;2022-10-16T15:26:23;17.70;99.90
18229;DHT22;9239;50.932;3.142;2022-10-16T15:28:50;17.70;99.90
18229;DHT22;9239;50.932;3.142;2022-10-16T15:31:17;17.60;99.90
18229;DHT22;9239;50.932;3.142;2022-10-16T15:33:44;17.50;99.90
18229;DHT22;9239;50.932;3.142;2022-10-16T15:36:17;17.60;99.90
18229;DHT22;9239;50.932;3.142;2022-10-16T15:38:45;17.50;99.90
18229;DHT22;9239;50.932;3.142;2022-10-16T15:41:12;17.50;99.90
18229;DHT22;9239;50.932;3.142;2022-10-16T15:43:38;17.50;99.90
18229;DHT22;9239;50.932;3.142;2022-10-16T15:46:08;17.40;99.90
18229;DHT22;9239;50.932;3.142;2022-10-16T15:48:36;17.40;99.90
18229;DHT22;9239;50.932;3.142;2022-10-16T15:51:06;17.40;99.90
18229;DHT22;9239;50.932;3.142;2022-10-16T15:53:33;17.40;99.90
18229;DHT22;9239;50.932;3.142;2022-10-16T15:56:03;17.30;99.90
18229;DHT22;9239;50.932;3.142;2022-10-16T15:58:30;17.30;99.90
18229;DHT22;9239;50.932;3.142;2022-10-16T16:00:57;17.20;99.90
18229;DHT22;9239;50.932;3.142;2022-10-16T16:03:26;17.20;99.90